createdAt,value
2017-05-09T00:00:28.519Z,0
2017-05-09T00:01:38.812Z,0
2017-05-09T00:02:49.078Z,0
2017-05-09T00:03:59.340Z,0
2017-05-09T00:05:09.606Z,0
2017-05-09T00:06:19.859Z,0
2017-05-09T00:07:30.122Z,0
2017-05-09T00:08:40.068Z,0
2017-05-09T00:09:50.327Z,0
2017-05-09T00:11:00.597Z,0
2017-05-09T00:12:10.228Z,0
2017-05-09T00:13:20.171Z,0
2017-05-09T00:14:30.439Z,0
2017-05-09T00:15:40.380Z,0
2017-05-09T00:16:50.633Z,0
2017-05-09T00:18:00.898Z,0
2017-05-09T00:19:11.160Z,0
2017-05-09T00:20:21.418Z,0
2017-05-09T00:21:31.683Z,0
2017-05-09T00:22:41.955Z,0
2017-05-09T00:23:52.217Z,0
2017-05-09T00:25:02.172Z,0
2017-05-09T00:26:11.812Z,0
2017-05-09T00:27:21.445Z,0
2017-05-09T00:28:31.713Z,0
2017-05-09T00:29:41.661Z,0
2017-05-09T00:30:51.954Z,0
2017-05-09T00:32:01.899Z,0
2017-05-09T00:33:11.851Z,0
2017-05-09T00:34:22.117Z,0
2017-05-09T00:35:32.376Z,0
2017-05-09T00:36:42.638Z,0
2017-05-09T00:37:52.902Z,0
2017-05-09T00:39:03.171Z,0
2017-05-09T00:40:13.434Z,0
2017-05-09T00:41:23.379Z,0
2017-05-09T00:42:33.325Z,0
2017-05-09T00:43:43.273Z,0
2017-05-09T00:44:53.533Z,0
2017-05-09T00:46:03.791Z,0
2017-05-09T00:47:14.073Z,0
2017-05-09T00:48:24.328Z,0
2017-05-09T00:49:34.598Z,0
2017-05-09T00:50:44.542Z,0
2017-05-09T00:51:54.800Z,0
2017-05-09T00:53:05.070Z,0
2017-05-09T00:54:15.334Z,0
2017-05-09T00:55:25.590Z,0
2017-05-09T00:56:35.856Z,0
2017-05-09T00:57:46.118Z,0
2017-05-09T00:58:56.375Z,0
2017-05-09T01:00:06.642Z,0
2017-05-09T01:01:16.903Z,0
2017-05-09T01:02:27.159Z,0
2017-05-09T01:03:37.418Z,0
2017-05-09T01:04:47.675Z,0
2017-05-09T01:05:57.937Z,0
2017-05-09T01:07:08.203Z,0
2017-05-09T01:08:18.456Z,0
2017-05-09T01:09:28.725Z,0
2017-05-09T01:10:38.987Z,0
2017-05-09T01:11:49.252Z,0
2017-05-09T01:12:59.515Z,0
2017-05-09T01:14:09.768Z,0
2017-05-09T01:15:19.713Z,0
2017-05-09T01:16:29.969Z,0
2017-05-09T01:17:40.224Z,0
2017-05-09T01:18:50.481Z,0
2017-05-09T01:20:00.747Z,0
2017-05-09T01:21:11.002Z,0
2017-05-09T01:22:21.257Z,0
2017-05-09T01:23:31.511Z,0
2017-05-09T01:24:41.780Z,0
2017-05-09T01:25:52.036Z,0
2017-05-09T01:27:02.336Z,0
2017-05-09T01:28:12.298Z,0
2017-05-09T01:29:22.552Z,0
2017-05-09T01:30:32.812Z,0
2017-05-09T01:31:43.075Z,0
2017-05-09T01:32:53.339Z,0
2017-05-09T01:34:03.603Z,0
2017-05-09T01:35:13.866Z,0
2017-05-09T01:36:24.126Z,0
2017-05-09T01:37:34.382Z,0
2017-05-09T01:38:44.012Z,0
2017-05-09T01:39:54.273Z,0
2017-05-09T01:41:04.537Z,0
2017-05-09T01:42:14.165Z,0
2017-05-09T01:43:24.113Z,0
2017-05-09T01:44:34.380Z,0
2017-05-09T01:45:44.642Z,0
2017-05-09T01:46:54.582Z,0
2017-05-09T01:48:04.848Z,0
2017-05-09T01:49:14.862Z,0
2017-05-09T01:50:24.492Z,0
2017-05-09T01:51:34.753Z,0
2017-05-09T01:52:45.015Z,0
2017-05-09T01:53:55.287Z,0
2017-05-09T01:55:05.242Z,0
2017-05-09T01:56:15.504Z,0
2017-05-09T01:57:25.761Z,0
2017-05-09T01:58:36.016Z,0
2017-05-09T01:59:46.273Z,0
2017-05-09T02:00:56.531Z,0
2017-05-09T02:02:06.787Z,0
2017-05-09T02:03:16.732Z,0
2017-05-09T02:04:26.678Z,0
2017-05-09T02:05:36.937Z,0
2017-05-09T02:06:47.194Z,0
2017-05-09T02:07:57.458Z,0
2017-05-09T02:09:07.717Z,0
2017-05-09T02:10:17.667Z,0
2017-05-09T02:11:27.928Z,0
2017-05-09T02:12:38.183Z,0
2017-05-09T02:13:48.450Z,0
2017-05-09T02:14:58.710Z,0
2017-05-09T02:16:08.969Z,0
2017-05-09T02:17:18.912Z,0
2017-05-09T02:18:29.178Z,0
2017-05-09T02:19:39.426Z,0
2017-05-09T02:20:49.688Z,0
2017-05-09T02:21:59.944Z,0
2017-05-09T02:23:10.204Z,0
2017-05-09T02:24:20.472Z,0
2017-05-09T02:25:30.419Z,0
2017-05-09T02:26:40.688Z,0
2017-05-09T02:27:50.945Z,0
2017-05-09T02:29:01.207Z,0
2017-05-09T02:30:11.469Z,0
2017-05-09T02:31:21.104Z,0
2017-05-09T02:32:31.362Z,0
2017-05-09T02:33:41.631Z,0
2017-05-09T02:34:51.895Z,0
2017-05-09T02:36:01.835Z,0
2017-05-09T02:37:12.095Z,0
2017-05-09T02:38:22.360Z,0
2017-05-09T02:39:32.674Z,0
2017-05-09T02:40:42.950Z,0
2017-05-09T02:41:53.208Z,0
2017-05-09T02:43:03.475Z,0
2017-05-09T02:44:13.429Z,0
2017-05-09T02:45:23.686Z,5
2017-05-09T02:46:33.951Z,5
2017-05-09T02:47:43.903Z,5
2017-05-09T02:48:54.168Z,5
2017-05-09T02:50:04.428Z,5
2017-05-09T02:51:14.685Z,5
2017-05-09T02:52:24.946Z,5
2017-05-09T02:53:35.211Z,5
2017-05-09T02:54:45.483Z,5
2017-05-09T02:55:55.749Z,5
2017-05-09T02:57:06.013Z,5
2017-05-09T02:58:15.971Z,5
2017-05-09T02:59:26.227Z,10
2017-05-09T03:00:36.489Z,10
2017-05-09T03:01:46.751Z,10
2017-05-09T03:02:58.708Z,10
2017-05-09T03:04:08.967Z,15
2017-05-09T03:05:19.234Z,15
2017-05-09T03:06:29.180Z,15
2017-05-09T03:07:39.434Z,15
2017-05-09T03:08:49.702Z,15
2017-05-09T03:09:59.962Z,15
2017-05-09T03:11:10.215Z,15
2017-05-09T03:12:20.161Z,15
2017-05-09T03:13:30.419Z,15
2017-05-09T03:14:40.363Z,20
2017-05-09T03:15:50.617Z,20
2017-05-09T03:17:00.878Z,20
2017-05-09T03:18:11.167Z,25
2017-05-09T03:19:21.427Z,25
2017-05-09T03:20:31.685Z,25
2017-05-09T03:21:41.637Z,25
2017-05-09T03:22:51.943Z,30
2017-05-09T03:24:02.248Z,30
2017-05-09T03:25:12.198Z,30
2017-05-09T03:26:22.468Z,30
2017-05-09T03:27:32.414Z,30
2017-05-09T03:28:42.674Z,35
2017-05-09T03:29:52.937Z,35
2017-05-09T03:31:03.199Z,35
2017-05-09T03:32:13.457Z,40
2017-05-09T03:33:23.411Z,40
2017-05-09T03:34:33.684Z,40
2017-05-09T03:35:43.948Z,40
2017-05-09T03:36:54.203Z,40
2017-05-09T03:38:04.465Z,40
2017-05-09T03:39:14.738Z,45
2017-05-09T03:40:25.002Z,45
2017-05-09T03:41:35.260Z,45
2017-05-09T03:42:45.207Z,50
2017-05-09T03:43:55.467Z,50
2017-05-09T03:45:05.732Z,55
2017-05-09T03:46:15.688Z,55
2017-05-09T03:47:25.947Z,55
2017-05-09T03:48:36.211Z,60
2017-05-09T03:49:46.473Z,60
2017-05-09T03:50:56.728Z,60
2017-05-09T03:52:06.993Z,60
2017-05-09T03:53:16.939Z,60
2017-05-09T03:54:27.241Z,65
2017-05-09T03:55:37.186Z,65
2017-05-09T03:56:47.132Z,70
2017-05-09T03:57:57.389Z,70
2017-05-09T03:59:07.643Z,70
2017-05-09T04:00:17.588Z,70
2017-05-09T04:01:27.872Z,75
2017-05-09T04:02:38.135Z,75
2017-05-09T04:03:48.403Z,75
2017-05-09T04:04:58.665Z,75
2017-05-09T04:06:08.616Z,75
2017-05-09T04:07:18.877Z,75
2017-05-09T04:08:29.155Z,75
2017-05-09T04:09:39.414Z,80
2017-05-09T04:10:49.679Z,85
2017-05-09T04:11:59.945Z,85
2017-05-09T04:13:10.208Z,90
2017-05-09T04:14:20.466Z,90
2017-05-09T04:15:30.722Z,90
2017-05-09T04:16:40.981Z,95
2017-05-09T04:17:51.242Z,95
2017-05-09T04:19:01.508Z,95
2017-05-09T04:20:11.454Z,95
2017-05-09T04:21:21.718Z,100
2017-05-09T04:22:32.015Z,100
2017-05-09T04:23:41.955Z,105
2017-05-09T04:24:52.218Z,110
2017-05-09T04:26:02.477Z,110
2017-05-09T04:27:12.418Z,110
2017-05-09T04:28:22.677Z,110
2017-05-09T04:29:32.932Z,110
2017-05-09T04:30:43.190Z,110
2017-05-09T04:31:53.449Z,110
2017-05-09T04:33:03.712Z,110
2017-05-09T04:34:13.975Z,115
2017-05-09T04:35:23.923Z,120
2017-05-09T04:36:34.184Z,120
2017-05-09T04:37:44.441Z,120
2017-05-09T04:38:54.731Z,120
2017-05-09T04:40:04.993Z,125
2017-05-09T04:41:15.250Z,125
2017-05-09T04:42:25.201Z,130
2017-05-09T04:43:35.461Z,130
2017-05-09T04:44:45.718Z,130
2017-05-09T04:45:55.977Z,135
2017-05-09T04:47:06.244Z,140
2017-05-09T04:48:16.504Z,145
2017-05-09T04:49:26.772Z,145
2017-05-09T04:50:37.035Z,145
2017-05-09T04:51:46.980Z,145
2017-05-09T04:52:56.935Z,145
2017-05-09T04:54:07.193Z,150
2017-05-09T04:55:17.453Z,150
2017-05-09T04:56:27.758Z,155
2017-05-09T04:57:38.018Z,160
2017-05-09T04:58:48.286Z,155
2017-05-09T05:00:00.551Z,155
2017-05-09T05:01:10.499Z,155
2017-05-09T05:02:20.503Z,160
2017-05-09T05:03:30.762Z,160
2017-05-09T05:04:41.021Z,160
2017-05-09T05:05:51.277Z,165
2017-05-09T05:07:01.577Z,165
2017-05-09T05:08:11.832Z,165
2017-05-09T05:09:21.777Z,165
2017-05-09T05:10:32.034Z,170
2017-05-09T05:11:42.303Z,175
2017-05-09T05:12:52.565Z,180
2017-05-09T05:14:02.508Z,180
2017-05-09T05:15:12.455Z,180
2017-05-09T05:16:22.395Z,180
2017-05-09T05:17:32.688Z,190
2017-05-09T05:18:42.642Z,190
2017-05-09T05:19:52.901Z,195
2017-05-09T05:21:03.164Z,195
2017-05-09T05:22:13.428Z,195
2017-05-09T05:23:23.695Z,200
2017-05-09T05:24:33.954Z,205
2017-05-09T05:25:44.227Z,210
2017-05-09T05:26:54.485Z,210
2017-05-09T05:28:04.744Z,205
2017-05-09T05:29:14.700Z,205
2017-05-09T05:30:24.972Z,205
2017-05-09T05:31:35.236Z,210
2017-05-09T05:32:45.502Z,225
2017-05-09T05:33:55.138Z,210
2017-05-09T05:35:05.399Z,210
2017-05-09T05:36:15.030Z,205
2017-05-09T05:37:24.977Z,215
2017-05-09T05:38:35.393Z,200
2017-05-09T05:39:45.656Z,200
2017-05-09T05:40:55.604Z,195
2017-05-09T05:42:05.867Z,195
2017-05-09T05:43:16.131Z,195
2017-05-09T05:44:26.389Z,205
2017-05-09T05:45:36.644Z,220
2017-05-09T05:46:46.595Z,235
2017-05-09T05:47:56.546Z,250
2017-05-09T05:49:06.809Z,245
2017-05-09T05:50:17.066Z,225
2017-05-09T05:51:27.324Z,215
2017-05-09T05:52:37.591Z,210
2017-05-09T05:53:47.534Z,200
2017-05-09T05:54:57.486Z,195
2017-05-09T05:56:07.747Z,190
2017-05-09T05:57:17.067Z,195
2017-05-09T05:58:27.343Z,190
2017-05-09T05:59:37.608Z,195
2017-05-09T06:00:47.869Z,200
2017-05-09T06:01:58.131Z,205
2017-05-09T06:03:08.394Z,210
2017-05-09T06:04:18.654Z,220
2017-05-09T06:05:28.930Z,225
2017-05-09T06:06:38.881Z,225
2017-05-09T06:07:49.148Z,230
2017-05-09T06:08:59.421Z,230
2017-05-09T06:10:09.687Z,235
2017-05-09T06:11:19.961Z,240
2017-05-09T06:12:30.223Z,240
2017-05-09T06:13:40.176Z,245
2017-05-09T06:14:50.441Z,250
2017-05-09T06:16:00.707Z,255
2017-05-09T06:17:10.968Z,265
2017-05-09T06:18:20.605Z,275
2017-05-09T06:19:30.877Z,275
2017-05-09T06:20:41.161Z,280
2017-05-09T06:21:51.422Z,275
2017-05-09T06:23:01.689Z,275
2017-05-09T06:24:11.944Z,265
2017-05-09T06:25:21.576Z,265
2017-05-09T06:26:31.844Z,270
2017-05-09T06:27:42.136Z,270
2017-05-09T06:28:52.400Z,270
2017-05-09T06:30:02.353Z,275
2017-05-09T06:31:11.988Z,275
2017-05-09T06:32:22.254Z,275
2017-05-09T06:33:32.515Z,275
2017-05-09T06:34:42.149Z,275
2017-05-09T06:35:52.413Z,275
2017-05-09T06:37:02.678Z,275
2017-05-09T06:38:12.624Z,275
2017-05-09T06:39:22.568Z,270
2017-05-09T06:40:32.518Z,270
2017-05-09T06:41:42.781Z,270
2017-05-09T06:42:52.410Z,275
2017-05-09T06:44:02.668Z,280
2017-05-09T06:45:12.925Z,290
2017-05-09T06:46:22.870Z,300
2017-05-09T06:47:32.865Z,320
2017-05-09T06:48:43.173Z,335
2017-05-09T06:49:53.441Z,340
2017-05-09T06:51:03.700Z,350
2017-05-09T06:52:13.967Z,350
2017-05-09T06:53:23.928Z,345
2017-05-09T06:54:34.191Z,335
2017-05-09T06:55:44.455Z,320
2017-05-09T06:56:54.404Z,300
2017-05-09T06:58:04.679Z,285
2017-05-09T06:59:14.663Z,275
2017-05-09T07:00:24.617Z,270
2017-05-09T07:01:34.883Z,270
2017-05-09T07:02:44.827Z,280
2017-05-09T07:03:54.772Z,290
2017-05-09T07:05:04.721Z,300
2017-05-09T07:06:14.679Z,305
2017-05-09T07:07:24.629Z,305
2017-05-09T07:08:34.892Z,315
2017-05-09T07:09:45.157Z,335
2017-05-09T07:10:55.437Z,360
2017-05-09T07:12:05.709Z,375
2017-05-09T07:13:15.658Z,390
2017-05-09T07:14:25.611Z,395
2017-05-09T07:15:35.882Z,395
2017-05-09T07:16:46.153Z,395
2017-05-09T07:17:56.421Z,390
2017-05-09T07:19:06.689Z,385
2017-05-09T07:20:16.980Z,385
2017-05-09T07:21:27.243Z,385
2017-05-09T07:22:37.195Z,385
2017-05-09T07:23:47.464Z,380
2017-05-09T07:24:57.726Z,375
2017-05-09T07:26:07.687Z,380
2017-05-09T07:27:17.319Z,380
2017-05-09T07:28:27.277Z,385
2017-05-09T07:29:37.539Z,395
2017-05-09T07:30:47.174Z,405
2017-05-09T07:31:57.432Z,410
2017-05-09T07:33:07.384Z,425
2017-05-09T07:34:16.707Z,425
2017-05-09T07:35:26.974Z,425
2017-05-09T07:36:37.236Z,425
2017-05-09T07:37:47.500Z,415
2017-05-09T07:38:57.761Z,415
2017-05-09T07:40:08.019Z,420
2017-05-09T07:41:18.276Z,415
2017-05-09T07:42:28.542Z,410
2017-05-09T07:43:38.805Z,410
2017-05-09T07:44:48.758Z,405
2017-05-09T07:45:59.016Z,395
2017-05-09T07:47:09.280Z,390
2017-05-09T07:48:19.538Z,400
2017-05-09T07:49:29.808Z,400
2017-05-09T07:50:39.754Z,410
2017-05-09T07:51:49.701Z,420
2017-05-09T07:52:59.652Z,430
2017-05-09T07:54:09.918Z,440
2017-05-09T07:55:20.198Z,450
2017-05-09T07:56:30.460Z,450
2017-05-09T07:57:40.727Z,440
2017-05-09T07:58:50.676Z,435
2017-05-09T08:00:00.624Z,435
2017-05-09T08:01:10.574Z,430
2017-05-09T08:02:20.846Z,430
2017-05-09T08:03:31.109Z,425
2017-05-09T08:04:41.371Z,420
2017-05-09T08:05:51.632Z,425
2017-05-09T08:07:01.900Z,420
2017-05-09T08:08:12.161Z,420
2017-05-09T08:09:22.112Z,420
2017-05-09T08:10:32.370Z,410
2017-05-09T08:11:42.318Z,405
2017-05-09T08:12:52.585Z,380
2017-05-09T08:14:02.851Z,365
2017-05-09T08:15:12.802Z,365
2017-05-09T08:16:23.072Z,355
2017-05-09T08:17:33.340Z,350
2017-05-09T08:18:43.606Z,375
2017-05-09T08:19:53.864Z,355
2017-05-09T08:21:04.133Z,330
2017-05-09T08:22:14.396Z,315
2017-05-09T08:23:24.348Z,305
2017-05-09T08:24:34.293Z,300
2017-05-09T08:25:44.553Z,305
2017-05-09T08:26:54.812Z,300
2017-05-09T08:28:04.768Z,290
2017-05-09T08:29:14.406Z,290
2017-05-09T08:30:24.669Z,295
2017-05-09T08:31:34.939Z,325
2017-05-09T08:32:45.206Z,335
2017-05-09T08:33:55.510Z,330
2017-05-09T08:35:05.771Z,325
2017-05-09T08:36:15.739Z,330
2017-05-09T08:37:26.006Z,310
2017-05-09T08:38:35.956Z,290
2017-05-09T08:39:46.225Z,295
2017-05-09T08:40:56.486Z,275
2017-05-09T08:42:06.753Z,255
2017-05-09T08:43:16.395Z,260
2017-05-09T08:44:26.667Z,265
2017-05-09T08:45:36.932Z,280
2017-05-09T08:46:46.876Z,295
2017-05-09T08:47:57.134Z,295
2017-05-09T08:49:07.398Z,295
2017-05-09T08:50:17.035Z,300
2017-05-09T08:51:27.304Z,305
2017-05-09T08:52:37.567Z,315
2017-05-09T08:53:47.514Z,320
2017-05-09T08:54:57.779Z,325
2017-05-09T08:56:07.730Z,330
2017-05-09T08:57:17.373Z,335
2017-05-09T08:58:27.325Z,365
2017-05-09T08:59:37.526Z,365
2017-05-09T09:00:47.479Z,365
2017-05-09T09:01:57.428Z,370
2017-05-09T09:03:07.697Z,365
2017-05-09T09:04:17.326Z,345
2017-05-09T09:05:27.597Z,340
2017-05-09T09:06:37.882Z,335
2017-05-09T09:07:47.829Z,325
2017-05-09T09:08:58.092Z,335
2017-05-09T09:10:08.353Z,340
2017-05-09T09:11:18.613Z,330
2017-05-09T09:12:28.256Z,325
2017-05-09T09:13:38.524Z,330
2017-05-09T09:14:48.790Z,310
2017-05-09T09:15:58.740Z,310
2017-05-09T09:17:09.013Z,315
2017-05-09T09:18:18.998Z,320
2017-05-09T09:19:29.262Z,330
2017-05-09T09:20:39.524Z,340
2017-05-09T09:21:49.783Z,350
2017-05-09T09:23:00.043Z,355
2017-05-09T09:24:10.318Z,380
2017-05-09T09:25:20.269Z,380
2017-05-09T09:26:30.215Z,410
2017-05-09T09:27:40.475Z,430
2017-05-09T09:28:50.420Z,440
2017-05-09T09:30:00.367Z,465
2017-05-09T09:31:10.311Z,490
2017-05-09T09:32:19.976Z,520
2017-05-09T09:33:30.246Z,545
2017-05-09T09:34:40.209Z,535
2017-05-09T09:35:50.161Z,530
2017-05-09T09:36:59.797Z,560
2017-05-09T09:38:09.432Z,610
2017-05-09T09:39:19.691Z,640
2017-05-09T09:40:29.654Z,655
2017-05-09T09:41:39.929Z,660
2017-05-09T09:42:49.568Z,655
2017-05-09T09:43:59.828Z,650
2017-05-09T09:45:10.102Z,640
2017-05-09T09:46:20.369Z,625
2017-05-09T09:47:30.330Z,625
2017-05-09T09:48:40.284Z,625
2017-05-09T09:49:50.237Z,610
2017-05-09T09:51:00.505Z,595
2017-05-09T09:52:10.141Z,575
2017-05-09T09:53:19.463Z,540
2017-05-09T09:54:29.729Z,510
2017-05-09T09:55:39.989Z,475
2017-05-09T09:56:50.258Z,450
2017-05-09T09:58:00.213Z,430
2017-05-09T09:59:09.852Z,425
2017-05-09T10:00:20.118Z,485
2017-05-09T10:01:30.069Z,485
2017-05-09T10:02:40.052Z,490
2017-05-09T10:03:50.311Z,530
2017-05-09T10:05:00.261Z,540
2017-05-09T10:06:10.214Z,555
2017-05-09T10:07:19.857Z,570
2017-05-09T10:08:29.811Z,530
2017-05-09T10:09:40.074Z,530
2017-05-09T10:10:50.337Z,510
2017-05-09T10:12:00.614Z,530
2017-05-09T10:13:10.877Z,525
2017-05-09T10:14:20.831Z,510
2017-05-09T10:15:31.104Z,525
2017-05-09T10:16:41.366Z,570
2017-05-09T10:17:51.649Z,585
2017-05-09T10:19:01.596Z,585
2017-05-09T10:20:11.860Z,585
2017-05-09T10:21:22.127Z,570
2017-05-09T10:22:32.083Z,510
2017-05-09T10:23:42.066Z,525
2017-05-09T10:24:52.027Z,480
2017-05-09T10:26:01.982Z,485
2017-05-09T10:27:11.626Z,570
2017-05-09T10:28:21.894Z,580
2017-05-09T10:29:32.168Z,605
2017-05-09T10:30:42.125Z,670
2017-05-09T10:31:52.110Z,720
2017-05-09T10:33:02.385Z,760
2017-05-09T10:34:12.338Z,750
2017-05-09T10:35:21.980Z,785
2017-05-09T10:36:31.935Z,830
2017-05-09T10:37:42.205Z,865
2017-05-09T10:38:52.469Z,835
2017-05-09T10:40:02.738Z,790
2017-05-09T10:41:13.012Z,760
2017-05-09T10:42:22.652Z,720
2017-05-09T10:43:32.923Z,680
2017-05-09T10:44:43.188Z,640
2017-05-09T10:45:53.453Z,625
2017-05-09T10:47:03.721Z,645
2017-05-09T10:48:13.366Z,660
2017-05-09T10:49:23.640Z,655
2017-05-09T10:50:33.911Z,650
2017-05-09T10:51:44.181Z,680
2017-05-09T10:52:54.155Z,690
2017-05-09T10:54:04.112Z,700
2017-05-09T10:55:14.079Z,665
2017-05-09T10:56:24.355Z,640
2017-05-09T10:57:34.625Z,630
2017-05-09T10:58:44.584Z,625
2017-05-09T10:59:54.853Z,640
2017-05-09T11:01:05.122Z,670
2017-05-09T11:02:15.077Z,705
2017-05-09T11:03:25.354Z,720
2017-05-09T11:04:35.646Z,730
2017-05-09T11:05:45.610Z,715
2017-05-09T11:06:55.564Z,695
2017-05-09T11:08:05.824Z,680
2017-05-09T11:09:16.092Z,685
2017-05-09T11:10:26.049Z,680
2017-05-09T11:11:36.320Z,660
2017-05-09T11:12:46.598Z,655
2017-05-09T11:13:56.256Z,685
2017-05-09T11:15:06.531Z,720
2017-05-09T11:16:16.486Z,760
2017-05-09T11:17:26.441Z,760
2017-05-09T11:18:36.401Z,795
2017-05-09T11:19:46.665Z,790
2017-05-09T11:20:56.991Z,765
2017-05-09T11:22:07.268Z,690
2017-05-09T11:23:17.543Z,620
2017-05-09T11:24:27.180Z,1020
2017-05-09T11:25:37.475Z,1670
2017-05-09T11:26:47.755Z,2270
2017-05-09T11:27:58.029Z,845
2017-05-09T11:29:08.304Z,1175
2017-05-09T11:30:18.579Z,800
2017-05-09T11:31:28.572Z,750
2017-05-09T11:32:38.837Z,715
2017-05-09T11:33:49.109Z,720
2017-05-09T11:34:59.393Z,760
2017-05-09T11:36:09.358Z,815
2017-05-09T11:37:19.317Z,870
2017-05-09T11:38:29.280Z,950
2017-05-09T11:39:39.242Z,905
2017-05-09T11:40:49.210Z,850
2017-05-09T11:41:59.174Z,800
2017-05-09T11:43:11.663Z,1015
2017-05-09T11:44:21.938Z,1345
2017-05-09T11:45:32.210Z,1340
2017-05-09T11:46:42.478Z,800
2017-05-09T11:47:52.751Z,760
2017-05-09T11:49:03.021Z,775
2017-05-09T11:50:12.977Z,1485
2017-05-09T11:51:23.260Z,1185
2017-05-09T11:52:33.581Z,1680
2017-05-09T11:53:43.872Z,1685
2017-05-09T11:54:54.150Z,2040
2017-05-09T11:56:04.425Z,2460
2017-05-09T11:57:14.386Z,2615
2017-05-09T11:58:24.356Z,2235
2017-05-09T11:59:34.639Z,1665
2017-05-09T12:00:44.629Z,1725
2017-05-09T12:01:54.905Z,2155
2017-05-09T12:03:05.187Z,2545
2017-05-09T12:04:15.152Z,1545
2017-05-09T12:05:25.427Z,1675
2017-05-09T12:06:35.393Z,2600
2017-05-09T12:07:45.666Z,2330
2017-05-09T12:08:55.630Z,1990
2017-05-09T12:10:05.898Z,1720
2017-05-09T12:11:15.861Z,1160
2017-05-09T12:12:26.138Z,1465
2017-05-09T12:13:36.416Z,2475
2017-05-09T12:14:46.691Z,1380
2017-05-09T12:15:56.347Z,1690
2017-05-09T12:17:06.624Z,1830
2017-05-09T12:18:16.890Z,1975
2017-05-09T12:19:27.169Z,2140
2017-05-09T12:20:37.457Z,1285
2017-05-09T12:21:47.418Z,1295
2017-05-09T12:22:57.693Z,1235
2017-05-09T12:24:07.975Z,1220
2017-05-09T12:25:17.658Z,955
2017-05-09T12:26:27.931Z,865
2017-05-09T12:27:38.201Z,820
2017-05-09T12:28:48.472Z,820
2017-05-09T12:29:58.777Z,850
2017-05-09T12:31:09.051Z,1080
2017-05-09T12:32:18.698Z,1110
2017-05-09T12:33:28.974Z,1045
2017-05-09T12:34:39.252Z,1025
2017-05-09T12:35:49.525Z,840
2017-05-09T12:36:59.814Z,915
2017-05-09T12:38:10.083Z,1220
2017-05-09T12:39:20.043Z,1310
2017-05-09T12:40:30.032Z,1205
2017-05-09T12:41:40.300Z,1355
2017-05-09T12:42:50.572Z,1175
2017-05-09T12:44:00.875Z,1650
2017-05-09T12:45:11.155Z,1570
2017-05-09T12:46:21.425Z,1650
2017-05-09T12:47:31.073Z,1300
2017-05-09T12:48:41.359Z,2025
2017-05-09T12:49:51.320Z,1510
2017-05-09T12:51:01.597Z,1925
2017-05-09T12:52:11.874Z,1875
2017-05-09T12:53:21.842Z,2345
2017-05-09T12:54:31.802Z,2510
2017-05-09T12:55:42.071Z,1750
2017-05-09T12:56:52.350Z,2425
2017-05-09T12:58:02.620Z,1660
2017-05-09T12:59:12.897Z,1390
2017-05-09T13:00:23.175Z,1420
2017-05-09T13:01:33.137Z,1765
2017-05-09T13:02:43.408Z,1905
2017-05-09T13:03:53.683Z,2125
2017-05-09T13:05:03.649Z,1755
2017-05-09T13:06:13.606Z,2180
2017-05-09T13:07:23.882Z,1815
2017-05-09T13:08:33.849Z,2035
2017-05-09T13:09:44.131Z,2460
2017-05-09T13:10:54.406Z,2490
2017-05-09T13:12:04.688Z,2560
2017-05-09T13:13:14.979Z,2380
2017-05-09T13:14:25.263Z,2190
2017-05-09T13:15:35.542Z,1990
2017-05-09T13:16:45.822Z,2150
2017-05-09T13:17:55.795Z,2220
2017-05-09T13:19:06.076Z,2145
2017-05-09T13:20:16.073Z,2405
2017-05-09T13:21:26.042Z,2575
2017-05-09T13:22:36.314Z,2520
2017-05-09T13:23:46.282Z,2275
2017-05-09T13:24:56.563Z,2130
2017-05-09T13:26:06.562Z,1645
2017-05-09T13:27:16.571Z,1520
2017-05-09T13:28:26.542Z,1070
2017-05-09T13:29:36.510Z,1055
2017-05-09T13:30:46.796Z,1130
2017-05-09T13:31:57.120Z,1645
2017-05-09T13:33:07.404Z,1120
2017-05-09T13:34:17.677Z,935
2017-05-09T13:35:27.958Z,880
2017-05-09T13:36:37.925Z,865
2017-05-09T13:37:47.573Z,950
2017-05-09T13:38:57.850Z,1390
2017-05-09T13:40:08.125Z,1720
2017-05-09T13:41:17.779Z,1370
2017-05-09T13:42:28.056Z,1780
2017-05-09T13:43:38.024Z,1650
2017-05-09T13:44:47.983Z,840
2017-05-09T13:45:57.951Z,745
2017-05-09T13:47:07.908Z,660
2017-05-09T13:48:17.555Z,640
2017-05-09T13:49:27.831Z,615
2017-05-09T13:50:37.805Z,600
2017-05-09T13:51:47.451Z,585
2017-05-09T13:52:57.734Z,590
2017-05-09T13:54:08.004Z,620
2017-05-09T13:55:17.964Z,680
2017-05-09T13:56:28.238Z,2500
2017-05-09T13:57:38.543Z,2260
2017-05-09T13:58:48.187Z,2270
2017-05-09T13:59:58.142Z,2515
2017-05-09T14:01:08.410Z,2730
2017-05-09T14:02:17.745Z,2075
2017-05-09T14:03:28.013Z,1730
2017-05-09T14:04:38.285Z,1140
2017-05-09T14:05:48.559Z,3235
2017-05-09T14:06:58.831Z,3135
2017-05-09T14:08:08.792Z,3200
2017-05-09T14:09:19.065Z,3000
2017-05-09T14:10:29.349Z,2960
2017-05-09T14:11:39.621Z,2790
2017-05-09T14:12:49.584Z,2640
2017-05-09T14:13:59.546Z,2335
2017-05-09T14:15:09.835Z,2345
2017-05-09T14:16:20.108Z,2405
2017-05-09T14:17:30.075Z,2365
2017-05-09T14:18:40.351Z,2380
2017-05-09T14:19:50.662Z,2440
2017-05-09T14:21:00.953Z,2370
2017-05-09T14:22:11.239Z,2405
2017-05-09T14:23:20.273Z,2740
2017-05-09T14:24:30.230Z,2560
2017-05-09T14:25:40.513Z,2660
2017-05-09T14:26:50.486Z,2250
2017-05-09T14:28:00.766Z,2385
2017-05-09T14:29:10.429Z,2545
2017-05-09T14:30:20.710Z,2620
2017-05-09T14:31:30.990Z,2665
2017-05-09T14:32:41.270Z,2545
2017-05-09T14:33:51.560Z,2770
2017-05-09T14:35:01.521Z,2495
2017-05-09T14:36:11.490Z,2230
2017-05-09T14:37:21.774Z,2270
2017-05-09T14:38:31.753Z,2325
2017-05-09T14:39:42.040Z,2095
2017-05-09T14:40:52.020Z,1835
2017-05-09T14:42:02.306Z,1855
2017-05-09T14:43:12.268Z,1785
2017-05-09T14:44:22.544Z,1875
2017-05-09T14:45:32.825Z,1200
2017-05-09T14:46:43.142Z,1060
2017-05-09T14:47:53.427Z,1025
2017-05-09T14:49:03.395Z,1080
2017-05-09T14:50:13.358Z,1395
2017-05-09T14:51:23.328Z,1125
2017-05-09T14:52:33.301Z,835
2017-05-09T14:53:43.268Z,770
2017-05-09T14:54:53.563Z,730
2017-05-09T14:56:03.535Z,715
2017-05-09T14:57:13.500Z,725
2017-05-09T14:58:23.794Z,760
2017-05-09T14:59:34.076Z,805
2017-05-09T15:00:44.357Z,835
2017-05-09T15:01:54.684Z,840
2017-05-09T15:03:04.964Z,810
2017-05-09T15:04:14.932Z,780
2017-05-09T15:05:25.209Z,780
2017-05-09T15:06:35.173Z,775
2017-05-09T15:07:45.455Z,785
2017-05-09T15:08:55.735Z,785
2017-05-09T15:10:06.015Z,775
2017-05-09T15:11:16.301Z,755
2017-05-09T15:12:26.261Z,695
2017-05-09T15:13:36.222Z,660
2017-05-09T15:14:46.494Z,595
2017-05-09T15:15:56.145Z,535
2017-05-09T15:17:06.418Z,495
2017-05-09T15:18:16.380Z,465
2017-05-09T15:19:26.655Z,445
2017-05-09T15:20:36.614Z,430
2017-05-09T15:21:46.887Z,415
2017-05-09T15:22:57.172Z,415
2017-05-09T15:24:07.127Z,415
2017-05-09T15:25:16.774Z,410
2017-05-09T15:26:27.059Z,400
2017-05-09T15:27:37.330Z,390
2017-05-09T15:28:47.610Z,370
2017-05-09T15:29:57.884Z,370
2017-05-09T15:31:08.165Z,380
2017-05-09T15:32:18.436Z,390
2017-05-09T15:33:28.707Z,390
2017-05-09T15:34:38.975Z,390
2017-05-09T15:35:49.249Z,405
2017-05-09T15:36:59.527Z,425
2017-05-09T15:38:09.835Z,435
2017-05-09T15:39:20.112Z,435
2017-05-09T15:40:30.384Z,440
2017-05-09T15:41:40.656Z,445
2017-05-09T15:42:50.926Z,445
2017-05-09T15:44:01.193Z,465
2017-05-09T15:45:11.462Z,485
2017-05-09T15:46:21.101Z,500
2017-05-09T15:47:31.368Z,500
2017-05-09T15:48:41.328Z,500
2017-05-09T15:49:51.594Z,465
2017-05-09T15:51:01.870Z,460
2017-05-09T15:52:11.821Z,460
2017-05-09T15:53:21.147Z,450
2017-05-09T15:54:31.100Z,440
2017-05-09T15:55:41.382Z,425
2017-05-09T15:56:51.342Z,415
2017-05-09T15:58:01.607Z,400
2017-05-09T15:59:11.876Z,395
2017-05-09T16:00:21.832Z,400
2017-05-09T16:01:32.104Z,410
2017-05-09T16:02:42.376Z,435
2017-05-09T16:03:52.637Z,450
2017-05-09T16:05:02.910Z,470
2017-05-09T16:06:12.589Z,470
2017-05-09T16:07:22.543Z,480
2017-05-09T16:08:32.811Z,480
2017-05-09T16:09:42.458Z,465
2017-05-09T16:10:52.725Z,455
2017-05-09T16:12:02.991Z,445
2017-05-09T16:13:12.941Z,430
2017-05-09T16:14:22.577Z,420
2017-05-09T16:15:32.878Z,420